Time;durP1;ratioP1;P1;durP2;ratioP2;P2;SDS_P1;SDS_P2;PMS_P1;PMS_P2;Temp;Humidity;BMP_temperature;BMP_pressure;BME280_temperature;BME280_humidity;BME280_pressure;Samples;Min_cycle;Max_cycle;Signal;HPM_P1;HPM_P2
2021/09/18 00:00:01;;;;;;;;;;;11.70;1.00;;;;;;5068405;28;19912;-68
2021/09/18 00:02:27;;;;;;;;;;;11.70;1.00;;;;;;5053340;28;19916;-68
2021/09/18 00:04:52;;;;;;;;;;;11.70;1.00;;;;;;5072348;28;19927;-68
2021/09/18 00:07:18;;;;;;;;;;;11.70;1.00;;;;;;5053732;28;19912;-68
2021/09/18 00:09:43;;;;;;;;;;;11.70;1.00;;;;;;5065825;28;19922;-69
2021/09/18 00:12:09;;;;;;;;;;;11.60;1.00;;;;;;5052755;28;19943;-67
2021/09/18 00:14:37;;;;;;;;;;;11.60;1.00;;;;;;5063408;28;20362;-67
2021/09/18 00:17:03;;;;;;;;;;;11.60;1.00;;;;;;5065013;28;19916;-68
2021/09/18 00:19:29;;;;;;;;;;;11.50;1.00;;;;;;5065963;28;19948;-67
2021/09/18 00:21:54;;;;;;;;;;;11.60;1.00;;;;;;5050747;28;19975;-67
2021/09/18 00:24:20;;;;;;;;;;;11.60;1.00;;;;;;5053870;28;19927;-66
2021/09/18 00:26:45;;;;;;;;;;;11.60;1.00;;;;;;5058565;28;19964;-67
2021/09/18 00:29:11;;;;;;;;;;;11.50;1.00;;;;;;5058003;28;20282;-67
2021/09/18 00:31:36;;;;;;;;;;;11.50;1.00;;;;;;5055524;28;19916;-66
2021/09/18 00:34:02;;;;;;;;;;;11.50;1.00;;;;;;5050443;28;20011;-68
2021/09/18 00:36:27;;;;;;;;;;;11.50;1.00;;;;;;5057411;28;19927;-66
2021/09/18 00:38:53;;;;;;;;;;;11.40;1.00;;;;;;5058692;28;19920;-66
2021/09/18 00:41:18;;;;;;;;;;;11.50;1.00;;;;;;5061621;28;19923;-67
2021/09/18 00:43:51;;;;;;;;;;;11.40;1.00;;;;;;5052391;28;20017;-67
2021/09/18 00:46:17;;;;;;;;;;;11.40;1.00;;;;;;5050386;28;20369;-67
2021/09/18 00:48:42;;;;;;;;;;;11.40;1.00;;;;;;5051178;28;19958;-67
2021/09/18 00:51:08;;;;;;;;;;;11.40;1.00;;;;;;5050217;28;19969;-67
2021/09/18 00:53:34;;;;;;;;;;;11.40;1.00;;;;;;5057399;28;19913;-66
2021/09/18 00:55:59;;;;;;;;;;;11.40;1.00;;;;;;5060733;28;19925;-66
2021/09/18 00:58:25;;;;;;;;;;;11.40;1.00;;;;;;5070207;28;19912;-67
2021/09/18 01:00:50;;;;;;;;;;;11.30;1.00;;;;;;5051510;28;20321;-67
2021/09/18 01:03:16;;;;;;;;;;;11.30;1.00;;;;;;5061937;28;19999;-66
2021/09/18 01:05:41;;;;;;;;;;;11.30;1.00;;;;;;5067675;28;20384;-67
2021/09/18 01:08:10;;;;;;;;;;;11.30;1.00;;;;;;5066985;28;20361;-67
2021/09/18 01:10:36;;;;;;;;;;;11.30;1.00;;;;;;5053581;28;20319;-66
2021/09/18 01:13:09;;;;;;;;;;;11.30;1.00;;;;;;5053022;28;19927;-66
2021/09/18 01:15:36;;;;;;;;;;;11.30;1.00;;;;;;5069329;28;20097;-66
2021/09/18 01:18:03;;;;;;;;;;;11.20;1.00;;;;;;5065298;28;20006;-66
2021/09/18 01:20:29;;;;;;;;;;;11.30;1.00;;;;;;5069287;28;19912;-66
2021/09/18 01:22:58;;;;;;;;;;;11.20;1.00;;;;;;5067238;28;20400;-66
2021/09/18 01:25:25;;;;;;;;;;;11.20;1.00;;;;;;5076180;28;19917;-66
2021/09/18 01:27:50;;;;;;;;;;;11.30;1.00;;;;;;5069386;28;20287;-66
2021/09/18 01:30:20;;;;;;;;;;;11.20;1.00;;;;;;5056747;28;19913;-66
2021/09/18 01:32:46;;;;;;;;;;;11.20;1.00;;;;;;5049049;28;20440;-67
2021/09/18 01:35:12;;;;;;;;;;;11.20;1.00;;;;;;5055326;28;19921;-67
2021/09/18 01:37:37;;;;;;;;;;;11.20;1.00;;;;;;5066123;28;20086;-67
2021/09/18 01:40:06;;;;;;;;;;;11.10;1.00;;;;;;5068420;28;20043;-66
2021/09/18 01:42:31;;;;;;;;;;;11.10;1.00;;;;;;5065604;28;19984;-66
2021/09/18 01:44:57;;;;;;;;;;;11.10;1.00;;;;;;5068640;28;20454;-66
2021/09/18 01:47:22;;;;;;;;;;;11.10;1.00;;;;;;5058984;28;19920;-67
2021/09/18 01:49:48;;;;;;;;;;;11.00;1.00;;;;;;5049542;28;19952;-66
2021/09/18 01:52:35;;;;;;;;;;;11.00;1.00;;;;;;5052042;28;20330;-66
2021/09/18 01:55:00;;;;;;;;;;;11.00;1.00;;;;;;5064092;28;19939;-66
2021/09/18 01:57:26;;;;;;;;;;;11.00;1.00;;;;;;5057584;28;19916;-66
2021/09/18 01:59:51;;;;;;;;;;;11.10;1.00;;;;;;5064960;28;19961;-67
2021/09/18 02:02:17;;;;;;;;;;;11.10;1.00;;;;;;5052249;28;20012;-67
2021/09/18 02:04:42;;;;;;;;;;;11.00;1.00;;;;;;5064542;28;20330;-66
2021/09/18 02:07:08;;;;;;;;;;;11.00;1.00;;;;;;5059011;28;19917;-67
2021/09/18 02:09:33;;;;;;;;;;;10.90;1.00;;;;;;5048727;28;19916;-66
2021/09/18 02:11:59;;;;;;;;;;;10.90;1.00;;;;;;5060213;28;19931;-66
2021/09/18 02:14:24;;;;;;;;;;;10.90;1.00;;;;;;5062380;28;19917;-65
2021/09/18 02:16:49;;;;;;;;;;;10.90;1.00;;;;;;5052409;28;20014;-66
2021/09/18 02:19:15;;;;;;;;;;;10.80;1.00;;;;;;5063575;28;20402;-67
2021/09/18 02:21:40;;;;;;;;;;;10.80;1.00;;;;;;5052239;28;19920;-67
2021/09/18 02:24:06;;;;;;;;;;;10.80;1.00;;;;;;5052548;28;20579;-67
2021/09/18 02:26:31;;;;;;;;;;;10.90;1.00;;;;;;5058245;28;19962;-67
2021/09/18 02:28:57;;;;;;;;;;;10.90;1.00;;;;;;5061351;28;20377;-67
2021/09/18 02:31:22;;;;;;;;;;;10.80;1.00;;;;;;5050962;28;19913;-67
2021/09/18 02:33:48;;;;;;;;;;;10.80;1.00;;;;;;5067738;28;20019;-66
2021/09/18 02:36:14;;;;;;;;;;;10.80;1.00;;;;;;5066728;28;19944;-66
2021/09/18 02:38:39;;;;;;;;;;;10.80;1.00;;;;;;5047773;28;20370;-67
2021/09/18 02:41:05;;;;;;;;;;;10.80;1.00;;;;;;5054646;28;20304;-66
2021/09/18 02:43:30;;;;;;;;;;;10.80;1.00;;;;;;5058970;28;19944;-67
2021/09/18 02:45:56;;;;;;;;;;;10.70;1.00;;;;;;5048083;28;19920;-67
2021/09/18 02:48:21;;;;;;;;;;;10.70;1.00;;;;;;5064274;28;20007;-66
2021/09/18 02:50:47;;;;;;;;;;;10.60;1.00;;;;;;5048676;28;19919;-66
2021/09/18 02:53:13;;;;;;;;;;;10.60;1.00;;;;;;5047157;28;20326;-66
2021/09/18 02:55:38;;;;;;;;;;;10.60;1.00;;;;;;5056800;28;19946;-66
2021/09/18 02:58:04;;;;;;;;;;;10.60;1.00;;;;;;5061606;28;19931;-66
2021/09/18 03:00:29;;;;;;;;;;;10.50;1.00;;;;;;5057228;28;19912;-68
2021/09/18 03:02:55;;;;;;;;;;;10.50;1.00;;;;;;5048622;28;19960;-67
2021/09/18 03:05:20;;;;;;;;;;;10.50;1.00;;;;;;5054786;28;19967;-67
2021/09/18 03:07:46;;;;;;;;;;;10.50;1.00;;;;;;5055118;28;19913;-67
2021/09/18 03:10:12;;;;;;;;;;;10.50;1.00;;;;;;5048573;28;19912;-66
2021/09/18 03:12:37;;;;;;;;;;;10.40;1.00;;;;;;5047444;28;19912;-66
2021/09/18 03:15:04;;;;;;;;;;;10.50;1.00;;;;;;5066461;28;19912;-66
2021/09/18 03:17:29;;;;;;;;;;;10.50;1.00;;;;;;5063734;28;19936;-66
2021/09/18 03:19:56;;;;;;;;;;;10.50;1.00;;;;;;5067022;28;20013;-66
2021/09/18 03:22:21;;;;;;;;;;;10.40;1.00;;;;;;5065657;28;19913;-67
2021/09/18 03:24:47;;;;;;;;;;;10.40;1.00;;;;;;5064568;28;19970;-67
2021/09/18 03:27:14;;;;;;;;;;;10.40;1.00;;;;;;5055048;28;19916;-68
2021/09/18 03:29:40;;;;;;;;;;;10.40;1.00;;;;;;5052463;28;20020;-67
2021/09/18 03:32:05;;;;;;;;;;;10.40;1.00;;;;;;5051330;28;20361;-67
2021/09/18 03:34:31;;;;;;;;;;;10.40;1.00;;;;;;5063759;28;19952;-67
2021/09/18 03:36:57;;;;;;;;;;;10.40;1.00;;;;;;5050480;28;19970;-68
2021/09/18 03:39:22;;;;;;;;;;;10.30;1.00;;;;;;5067341;28;20325;-66
2021/09/18 03:41:47;;;;;;;;;;;10.40;1.00;;;;;;5053660;28;19913;-67
2021/09/18 03:44:13;;;;;;;;;;;10.40;1.00;;;;;;5047793;28;19912;-67
2021/09/18 03:46:38;;;;;;;;;;;10.30;1.00;;;;;;5048708;28;19971;-67
2021/09/18 03:49:04;;;;;;;;;;;10.30;1.00;;;;;;5066964;28;19963;-66
2021/09/18 03:51:29;;;;;;;;;;;10.20;1.00;;;;;;5066223;28;19916;-66
2021/09/18 03:53:55;;;;;;;;;;;10.10;1.00;;;;;;5065969;28;19948;-66
2021/09/18 03:56:20;;;;;;;;;;;10.10;1.00;;;;;;5062207;28;20519;-65
2021/09/18 03:58:46;;;;;;;;;;;10.10;1.00;;;;;;5065622;28;19919;-67
2021/09/18 04:01:11;;;;;;;;;;;10.10;1.00;;;;;;5066208;28;20352;-67
2021/09/18 04:03:37;;;;;;;;;;;10.10;1.00;;;;;;5054513;28;19916;-66
2021/09/18 04:06:02;;;;;;;;;;;10.10;1.00;;;;;;5056073;28;19924;-66
2021/09/18 04:08:28;;;;;;;;;;;10.10;1.00;;;;;;5062280;28;19999;-67
2021/09/18 04:10:53;;;;;;;;;;;10.10;1.00;;;;;;5066868;28;20004;-66
2021/09/18 04:13:19;;;;;;;;;;;10.10;1.00;;;;;;5073170;28;19920;-66
2021/09/18 04:15:45;;;;;;;;;;;10.10;1.00;;;;;;5057092;28;20035;-66
2021/09/18 04:18:10;;;;;;;;;;;10.10;1.00;;;;;;5064066;28;19916;-66
2021/09/18 04:20:36;;;;;;;;;;;10.10;1.00;;;;;;5064466;28;19964;-67
2021/09/18 04:23:01;;;;;;;;;;;10.10;1.00;;;;;;5049288;28;20320;-66
2021/09/18 04:25:27;;;;;;;;;;;10.10;1.00;;;;;;5073788;28;19913;-67
2021/09/18 04:27:52;;;;;;;;;;;10.10;1.00;;;;;;5075525;28;19916;-68
2021/09/18 04:30:18;;;;;;;;;;;10.00;1.00;;;;;;5062685;28;19917;-66
2021/09/18 04:32:43;;;;;;;;;;;10.00;1.00;;;;;;5069756;28;20000;-66
2021/09/18 04:35:09;;;;;;;;;;;10.00;1.00;;;;;;5068655;28;19925;-66
2021/09/18 04:37:34;;;;;;;;;;;10.00;1.00;;;;;;5062286;28;19916;-66
2021/09/18 04:40:02;;;;;;;;;;;10.00;1.00;;;;;;5050912;28;19917;-66
2021/09/18 04:42:28;;;;;;;;;;;10.00;1.00;;;;;;5054220;28;19924;-66
2021/09/18 04:44:53;;;;;;;;;;;10.00;1.00;;;;;;5069771;28;19916;-66
2021/09/18 04:47:19;;;;;;;;;;;9.90;1.00;;;;;;5064949;28;20258;-67
2021/09/18 04:49:44;;;;;;;;;;;9.90;1.00;;;;;;5050922;28;20077;-66
2021/09/18 04:52:10;;;;;;;;;;;9.90;1.00;;;;;;5049399;28;19913;-66
2021/09/18 04:54:35;;;;;;;;;;;9.90;1.00;;;;;;5066269;28;19919;-67
2021/09/18 04:57:01;;;;;;;;;;;9.90;1.00;;;;;;5064195;28;19951;-67
2021/09/18 04:59:26;;;;;;;;;;;9.90;1.00;;;;;;5050475;28;19967;-67
2021/09/18 05:01:52;;;;;;;;;;;9.90;1.00;;;;;;5049688;28;19913;-67
2021/09/18 05:04:17;;;;;;;;;;;9.90;1.00;;;;;;5050662;28;19928;-66
2021/09/18 05:06:43;;;;;;;;;;;9.90;1.00;;;;;;5058422;28;19982;-67
2021/09/18 05:09:08;;;;;;;;;;;9.90;1.00;;;;;;5050500;28;19929;-67
2021/09/18 05:11:34;;;;;;;;;;;10.00;1.00;;;;;;5052980;28;19996;-67
2021/09/18 05:13:59;;;;;;;;;;;10.10;1.00;;;;;;5069347;28;20670;-67
2021/09/18 05:16:25;;;;;;;;;;;10.30;1.00;;;;;;5061448;28;20027;-67
2021/09/18 05:18:51;;;;;;;;;;;10.60;1.00;;;;;;5067144;28;19946;-68
2021/09/18 05:21:16;;;;;;;;;;;10.90;1.00;;;;;;5064541;28;19974;-67
2021/09/18 05:23:42;;;;;;;;;;;11.30;1.00;;;;;;5049900;28;19912;-67
2021/09/18 05:26:10;;;;;;;;;;;11.70;1.00;;;;;;5060970;28;20378;-67
2021/09/18 05:28:35;;;;;;;;;;;12.10;1.00;;;;;;5059247;28;19917;-67
2021/09/18 05:31:01;;;;;;;;;;;12.60;1.00;;;;;;5060573;28;20427;-68
2021/09/18 05:33:26;;;;;;;;;;;13.10;1.00;;;;;;5056123;28;19950;-67
2021/09/18 05:35:52;;;;;;;;;;;13.60;1.00;;;;;;5059948;28;19920;-67
2021/09/18 05:38:17;;;;;;;;;;;14.30;99.90;;;;;;5048930;28;19913;-67
2021/09/18 05:40:43;;;;;;;;;;;14.80;1.00;;;;;;5059328;28;19924;-68
2021/09/18 05:43:08;;;;;;;;;;;15.40;99.90;;;;;;5064299;28;19931;-67
2021/09/18 05:45:34;;;;;;;;;;;15.90;1.00;;;;;;5056214;28;20331;-67
2021/09/18 05:48:02;;;;;;;;;;;16.50;1.00;;;;;;5060122;28;19963;-67
2021/09/18 05:50:27;;;;;;;;;;;17.00;1.00;;;;;;5049989;28;19952;-67
2021/09/18 05:52:53;;;;;;;;;;;17.50;1.00;;;;;;5047897;28;19967;-67
2021/09/18 05:55:18;;;;;;;;;;;18.00;1.00;;;;;;5049193;28;19932;-68
2021/09/18 05:57:44;;;;;;;;;;;18.50;99.90;;;;;;5055201;28;19917;-68
2021/09/18 06:00:09;;;;;;;;;;;18.80;99.90;;;;;;5050617;28;20408;-67
2021/09/18 06:02:35;;;;;;;;;;;19.20;99.90;;;;;;5063137;28;20054;-67
2021/09/18 06:05:01;;;;;;;;;;;19.60;99.90;;;;;;5069680;28;20353;-67
2021/09/18 06:07:26;;;;;;;;;;;19.90;99.90;;;;;;5067600;28;20366;-67
2021/09/18 06:09:52;;;;;;;;;;;20.40;99.90;;;;;;5053038;28;19991;-67
2021/09/18 06:12:17;;;;;;;;;;;20.90;99.90;;;;;;5065901;28;19969;-67
2021/09/18 06:14:43;;;;;;;;;;;21.40;99.90;;;;;;5071736;28;19913;-67
2021/09/18 06:17:08;;;;;;;;;;;22.00;99.90;;;;;;5068207;28;20424;-67
2021/09/18 06:19:34;;;;;;;;;;;22.60;99.90;;;;;;5066689;28;20331;-67
2021/09/18 06:21:59;;;;;;;;;;;23.30;99.90;;;;;;5056038;28;19917;-68
2021/09/18 06:24:25;;;;;;;;;;;23.90;99.90;;;;;;5059965;28;19913;-68
2021/09/18 06:26:50;;;;;;;;;;;24.70;99.90;;;;;;5060120;28;19960;-68
2021/09/18 06:29:16;;;;;;;;;;;25.10;99.90;;;;;;5051720;28;19913;-68
2021/09/18 06:31:41;;;;;;;;;;;25.60;99.90;;;;;;5060532;28;19912;-68
2021/09/18 06:34:07;;;;;;;;;;;26.20;99.90;;;;;;5058360;28;19928;-68
2021/09/18 06:36:32;;;;;;;;;;;26.80;99.90;;;;;;5047261;28;19951;-68
2021/09/18 06:38:58;;;;;;;;;;;27.40;99.90;;;;;;5048332;28;20029;-68
2021/09/18 06:41:23;;;;;;;;;;;27.80;99.90;;;;;;5065753;28;19916;-67
2021/09/18 06:43:49;;;;;;;;;;;28.40;99.90;;;;;;5066924;28;20007;-68
2021/09/18 06:46:15;;;;;;;;;;;28.90;99.90;;;;;;5056485;28;19913;-68
2021/09/18 06:48:41;;;;;;;;;;;29.50;99.90;;;;;;5062810;28;19916;-68
2021/09/18 06:51:06;;;;;;;;;;;30.00;99.90;;;;;;5065015;28;19919;-68
2021/09/18 06:53:32;;;;;;;;;;;30.50;99.90;;;;;;5064915;28;20258;-68
2021/09/18 06:55:57;;;;;;;;;;;31.00;99.90;;;;;;5067286;28;19927;-68
2021/09/18 06:58:23;;;;;;;;;;;31.60;99.90;;;;;;5061719;28;19916;-67
2021/09/18 07:00:48;;;;;;;;;;;32.00;99.90;;;;;;5057445;28;20465;-68
2021/09/18 07:03:14;;;;;;;;;;;32.40;99.90;;;;;;5066910;28;19982;-68
2021/09/18 07:05:39;;;;;;;;;;;32.80;99.90;;;;;;5057682;28;19913;-68
2021/09/18 07:08:05;;;;;;;;;;;33.20;99.90;;;;;;5049696;28;20433;-68
2021/09/18 07:10:30;;;;;;;;;;;33.90;99.90;;;;;;5061024;28;19920;-68
2021/09/18 07:12:58;;;;;;;;;;;34.50;99.90;;;;;;5051560;28;19922;-68
2021/09/18 07:15:23;;;;;;;;;;;35.00;99.90;;;;;;5072633;28;20405;-68
2021/09/18 07:17:49;;;;;;;;;;;35.70;99.90;;;;;;5058271;28;19946;-68
2021/09/18 07:20:14;;;;;;;;;;;36.00;99.90;;;;;;5067858;28;19912;-68
2021/09/18 07:22:40;;;;;;;;;;;36.30;99.90;;;;;;5064102;28;20415;-69
2021/09/18 07:25:07;;;;;;;;;;;35.60;99.90;;;;;;5060222;28;20007;-69
2021/09/18 07:27:32;;;;;;;;;;;36.30;99.90;;;;;;5068851;28;19920;-68
2021/09/18 07:29:58;;;;;;;;;;;37.60;99.90;;;;;;5061401;28;19913;-68
2021/09/18 07:32:23;;;;;;;;;;;38.10;99.90;;;;;;5046904;28;19956;-68
2021/09/18 07:34:49;;;;;;;;;;;38.70;99.90;;;;;;5052191;28;19963;-69
2021/09/18 07:37:14;;;;;;;;;;;39.40;99.90;;;;;;5055528;28;20368;-68
2021/09/18 07:39:40;;;;;;;;;;;39.30;99.90;;;;;;5055286;28;19913;-69
2021/09/18 07:42:05;;;;;;;;;;;39.70;99.90;;;;;;5054054;28;19955;-69
2021/09/18 07:44:31;;;;;;;;;;;40.10;99.90;;;;;;5044552;28;19981;-69
2021/09/18 07:46:57;;;;;;;;;;;40.50;96.80;;;;;;5050076;28;19916;-69
2021/09/18 07:49:22;;;;;;;;;;;41.10;93.20;;;;;;5051302;28;19967;-69
2021/09/18 07:51:48;;;;;;;;;;;41.90;87.10;;;;;;5054296;28;19935;-69
2021/09/18 07:54:13;;;;;;;;;;;42.50;79.20;;;;;;5061534;28;19909;-69
2021/09/18 07:56:39;;;;;;;;;;;43.60;70.10;;;;;;5058422;28;19924;-68
2021/09/18 07:59:05;;;;;;;;;;;44.60;62.90;;;;;;5051711;28;19920;-69
2021/09/18 08:01:32;;;;;;;;;;;45.40;56.00;;;;;;5048852;28;19920;-69
2021/09/18 08:04:04;;;;;;;;;;;45.60;49.10;;;;;;5050774;28;19909;-68
2021/09/18 08:06:30;;;;;;;;;;;45.90;42.70;;;;;;5067537;28;19912;-69
2021/09/18 08:08:56;;;;;;;;;;;46.40;37.70;;;;;;5071045;28;19916;-69
2021/09/18 08:11:22;;;;;;;;;;;46.60;31.70;;;;;;5071842;28;20499;-69
2021/09/18 08:13:48;;;;;;;;;;;47.50;27.30;;;;;;5079625;28;19915;-67
2021/09/18 08:16:14;;;;;;;;;;;47.30;22.50;;;;;;5090964;28;19920;-68
2021/09/18 08:18:40;;;;;;;;;;;47.60;19.00;;;;;;5091313;28;19908;-69
2021/09/18 08:21:05;;;;;;;;;;;47.10;12.80;;;;;;5090963;28;19908;-69
2021/09/18 08:23:31;;;;;;;;;;;46.80;9.70;;;;;;5089759;28;19915;-68
2021/09/18 08:25:57;;;;;;;;;;;46.40;5.50;;;;;;5075686;28;19912;-69
2021/09/18 08:28:22;;;;;;;;;;;45.50;1.90;;;;;;5078003;28;19987;-68
2021/09/18 08:30:47;;;;;;;;;;;46.10;1.50;;;;;;5050751;28;20461;-69
2021/09/18 08:33:13;;;;;;;;;;;47.20;1.00;;;;;;5050128;28;19916;-68
2021/09/18 08:35:39;;;;;;;;;;;47.90;1.00;;;;;;5057951;28;20434;-70
2021/09/18 08:38:04;;;;;;;;;;;48.40;1.00;;;;;;5068041;28;20011;-67
2021/09/18 08:40:33;;;;;;;;;;;49.20;1.00;;;;;;5071064;28;19909;-69
2021/09/18 08:42:59;;;;;;;;;;;49.10;1.00;;;;;;5069755;28;20345;-67
2021/09/18 08:45:24;;;;;;;;;;;49.10;1.00;;;;;;5070618;28;20390;-68
2021/09/18 08:47:50;;;;;;;;;;;49.60;1.00;;;;;;5070356;28;19909;-69
2021/09/18 08:50:18;;;;;;;;;;;50.00;1.00;;;;;;5070863;28;19912;-70
2021/09/18 08:52:43;;;;;;;;;;;50.90;1.00;;;;;;5068637;28;19938;-72
2021/09/18 08:55:09;;;;;;;;;;;50.80;1.00;;;;;;5070337;28;20012;-68
2021/09/18 08:57:35;;;;;;;;;;;50.70;1.00;;;;;;5070405;28;19912;-68
2021/09/18 09:00:00;;;;;;;;;;;49.60;1.00;;;;;;5067772;28;19965;-68
2021/09/18 09:02:30;;;;;;;;;;;48.50;1.00;;;;;;5069341;28;20012;-69
2021/09/18 09:05:09;;;;;;;;;;;48.60;1.00;;;;;;5067755;28;20026;-70
2021/09/18 09:07:35;;;;;;;;;;;48.20;1.00;;;;;;5060220;28;19924;-68
2021/09/18 09:10:05;;;;;;;;;;;48.40;1.00;;;;;;5050337;28;20231;-68
2021/09/18 09:12:31;;;;;;;;;;;48.90;1.00;;;;;;5049405;28;19936;-68
2021/09/18 09:14:57;;;;;;;;;;;47.90;1.00;;;;;;5068288;28;20596;-68
2021/09/18 09:17:25;;;;;;;;;;;45.40;1.00;;;;;;5067256;28;20439;-67
2021/09/18 09:19:52;;;;;;;;;;;46.00;1.00;;;;;;5058829;28;19913;-69
2021/09/18 09:22:40;;;;;;;;;;;47.20;1.00;;;;;;5049665;28;19912;-70
2021/09/18 09:25:21;;;;;;;;;;;47.70;1.00;;;;;;5066929;28;19919;-69
2021/09/18 09:27:47;;;;;;;;;;;48.00;1.00;;;;;;5067793;28;19981;-69
2021/09/18 09:30:24;;;;;;;;;;;45.30;1.00;;;;;;5051950;28;20960;-69
2021/09/18 09:32:49;;;;;;;;;;;45.40;1.00;;;;;;5053202;28;19951;-73
2021/09/18 09:35:15;;;;;;;;;;;44.60;1.00;;;;;;5064525;28;19952;-72
2021/09/18 09:37:53;;;;;;;;;;;44.10;1.00;;;;;;5047747;28;19912;-69
2021/09/18 09:40:30;;;;;;;;;;;43.80;1.00;;;;;;5048971;28;19917;-69
2021/09/18 09:42:55;;;;;;;;;;;44.40;1.00;;;;;;5046130;28;19927;-69
2021/09/18 09:45:22;;;;;;;;;;;45.00;1.00;;;;;;5061557;28;20007;-68
2021/09/18 09:48:00;;;;;;;;;;;44.90;1.00;;;;;;5063589;28;19919;-68
2021/09/18 09:50:25;;;;;;;;;;;42.90;1.00;;;;;;5047176;28;20222;-69
2021/09/18 09:52:52;;;;;;;;;;;42.20;1.00;;;;;;5045570;28;19924;-70
2021/09/18 09:55:18;;;;;;;;;;;41.60;1.00;;;;;;5058403;28;19917;-70
2021/09/18 09:57:45;;;;;;;;;;;41.60;1.00;;;;;;5058230;28;19924;-70
2021/09/18 10:00:13;;;;;;;;;;;42.30;1.00;;;;;;5046297;28;19920;-69
2021/09/18 10:02:40;;;;;;;;;;;42.80;1.00;;;;;;5052788;28;19966;-69
2021/09/18 10:05:10;;;;;;;;;;;41.70;1.00;;;;;;5056951;28;20468;-69
2021/09/18 10:07:36;;;;;;;;;;;39.90;1.00;;;;;;5050344;28;19924;-68
2021/09/18 10:10:02;;;;;;;;;;;40.30;1.00;;;;;;5063513;28;19923;-69
2021/09/18 10:12:28;;;;;;;;;;;39.20;1.00;;;;;;5059595;28;19913;-69
2021/09/18 10:14:54;;;;;;;;;;;38.70;1.00;;;;;;5070999;28;19916;-69
2021/09/18 10:17:20;;;;;;;;;;;38.70;1.00;;;;;;5066853;28;19916;-68
2021/09/18 10:25:32;;;;;;;;;;;38.30;1.00;;;;;;5055743;28;19923;-70
2021/09/18 10:27:58;;;;;;;;;;;37.10;1.00;;;;;;5048709;28;19941;-69
2021/09/18 10:30:31;;;;;;;;;;;36.10;1.00;;;;;;5048800;28;19917;-70
2021/09/18 10:32:57;;;;;;;;;;;35.50;1.00;;;;;;5052332;28;20050;-70
2021/09/18 10:35:22;;;;;;;;;;;35.90;1.00;;;;;;5065726;28;20043;-69
2021/09/18 10:37:48;;;;;;;;;;;37.00;1.00;;;;;;5074050;28;20345;-69
2021/09/18 10:40:14;;;;;;;;;;;36.80;1.00;;;;;;5080039;28;19919;-70
2021/09/18 10:42:44;;;;;;;;;;;36.30;1.00;;;;;;5067140;28;19917;-69
2021/09/18 10:45:12;;;;;;;;;;;35.90;1.00;;;;;;5061237;28;19935;-70
2021/09/18 10:47:39;;;;;;;;;;;35.50;1.00;;;;;;5055958;28;20055;-70
2021/09/18 10:50:06;;;;;;;;;;;35.90;1.00;;;;;;5047318;28;19917;-68
2021/09/18 10:52:35;;;;;;;;;;;36.10;1.00;;;;;;5053069;28;19912;-67
2021/09/18 10:55:00;;;;;;;;;;;36.20;1.00;;;;;;5066776;28;20400;-69
2021/09/18 10:57:26;;;;;;;;;;;36.70;1.00;;;;;;5052476;28;19912;-70
2021/09/18 10:59:52;;;;;;;;;;;36.90;1.00;;;;;;5065365;28;20040;-68
2021/09/18 11:02:41;;;;;;;;;;;37.10;1.00;;;;;;5054666;28;19912;-70
2021/09/18 11:05:08;;;;;;;;;;;35.80;1.00;;;;;;5056981;28;20001;-69
2021/09/18 11:07:40;;;;;;;;;;;34.00;1.00;;;;;;5065295;28;19913;-69
2021/09/18 11:10:06;;;;;;;;;;;33.40;1.00;;;;;;5047093;28;20265;-69
2021/09/18 11:12:31;;;;;;;;;;;34.00;1.00;;;;;;5053709;28;19926;-67
2021/09/18 11:15:05;;;;;;;;;;;34.80;1.00;;;;;;5073130;28;20035;-69
2021/09/18 11:17:31;;;;;;;;;;;34.60;1.00;;;;;;5060380;28;20041;-69
2021/09/18 11:20:10;;;;;;;;;;;33.90;1.00;;;;;;5061492;28;19913;-69
2021/09/18 11:22:36;;;;;;;;;;;32.80;1.00;;;;;;5060334;28;20000;-68
2021/09/18 11:25:19;;;;;;;;;;;32.10;1.00;;;;;;5073003;28;19999;-67
2021/09/18 11:27:58;;;;;;;;;;;31.60;1.00;;;;;;5082125;28;19969;-67
2021/09/18 11:30:36;;;;;;;;;;;31.10;1.00;;;;;;5071840;28;20018;-67
2021/09/18 11:33:02;;;;;;;;;;;30.70;1.00;;;;;;5057289;28;19920;-68
2021/09/18 11:35:28;;;;;;;;;;;30.90;1.00;;;;;;5054316;28;19917;-67
2021/09/18 11:37:58;;;;;;;;;;;31.60;1.00;;;;;;5051518;28;19912;-68
2021/09/18 11:40:25;;;;;;;;;;;32.30;1.00;;;;;;5066130;28;19919;-67
2021/09/18 11:42:54;;;;;;;;;;;32.10;1.00;;;;;;5056671;28;20346;-67
2021/09/18 11:45:22;;;;;;;;;;;32.10;1.00;;;;;;5066782;28;20078;-68
2021/09/18 11:47:49;;;;;;;;;;;32.10;1.00;;;;;;5063464;28;19992;-69
2021/09/18 11:50:18;;;;;;;;;;;31.80;1.00;;;;;;5070469;28;20191;-67
2021/09/18 11:52:43;;;;;;;;;;;31.00;1.00;;;;;;5053187;28;19920;-68
2021/09/18 11:55:24;;;;;;;;;;;30.50;1.00;;;;;;5073351;28;19917;-67
2021/09/18 11:58:06;;;;;;;;;;;30.70;1.00;;;;;;5071199;28;19924;-66
2021/09/18 12:00:32;;;;;;;;;;;30.10;1.00;;;;;;5056242;28;19920;-66
2021/09/18 12:02:58;;;;;;;;;;;29.90;1.00;;;;;;5053023;28;20676;-66
2021/09/18 12:05:24;;;;;;;;;;;29.90;1.40;;;;;;5073454;28;20014;-66
2021/09/18 12:07:51;;;;;;;;;;;29.80;1.80;;;;;;5072828;28;19943;-66
2021/09/18 12:10:18;;;;;;;;;;;30.00;3.50;;;;;;5074125;28;20369;-66
2021/09/18 12:12:51;;;;;;;;;;;29.90;3.20;;;;;;5072372;28;19928;-67
2021/09/18 12:15:27;;;;;;;;;;;29.80;4.60;;;;;;5093086;28;19919;-67
2021/09/18 12:17:52;;;;;;;;;;;30.20;5.40;;;;;;5093094;28;20261;-67
2021/09/18 12:20:18;;;;;;;;;;;30.30;5.80;;;;;;5094591;28;19919;-67
2021/09/18 12:22:43;;;;;;;;;;;30.00;5.80;;;;;;5092510;28;19908;-67
2021/09/18 12:25:09;;;;;;;;;;;29.20;4.50;;;;;;5082837;28;19912;-67
2021/09/18 12:27:36;;;;;;;;;;;28.10;3.90;;;;;;5079650;28;19908;-66
2021/09/18 12:30:13;;;;;;;;;;;27.30;4.30;;;;;;5056849;28;20433;-67
2021/09/18 12:32:39;;;;;;;;;;;26.90;4.30;;;;;;5051163;28;19960;-66
2021/09/18 12:35:09;;;;;;;;;;;27.10;5.20;;;;;;5049733;28;19921;-67
2021/09/18 12:37:39;;;;;;;;;;;27.20;5.50;;;;;;5049440;28;19939;-67
2021/09/18 12:40:08;;;;;;;;;;;27.40;6.40;;;;;;5049570;28;19974;-67
2021/09/18 12:42:34;;;;;;;;;;;27.70;6.80;;;;;;5049311;28;19988;-67
2021/09/18 12:45:00;;;;;;;;;;;27.90;7.80;;;;;;5050144;28;19916;-67
2021/09/18 12:47:25;;;;;;;;;;;27.40;6.10;;;;;;5049745;28;20309;-67
2021/09/18 12:49:51;;;;;;;;;;;27.30;7.10;;;;;;5050120;28;19909;-66
2021/09/18 12:52:16;;;;;;;;;;;27.40;7.00;;;;;;5047678;28;20004;-66
2021/09/18 12:54:43;;;;;;;;;;;26.80;6.00;;;;;;5050325;28;19909;-66
2021/09/18 12:57:09;;;;;;;;;;;26.60;6.90;;;;;;5048899;28;19917;-67
2021/09/18 12:59:41;;;;;;;;;;;26.00;6.50;;;;;;5050508;28;20003;-66
2021/09/18 13:02:07;;;;;;;;;;;25.70;7.20;;;;;;5048465;28;19913;-67
2021/09/18 13:04:32;;;;;;;;;;;25.50;7.00;;;;;;5049534;28;19930;-66
2021/09/18 13:07:01;;;;;;;;;;;25.80;9.00;;;;;;5048917;28;20016;-67
2021/09/18 13:09:31;;;;;;;;;;;26.30;10.40;;;;;;5049307;28;19913;-66
2021/09/18 13:12:16;;;;;;;;;;;26.40;11.30;;;;;;5046918;28;19917;-66
2021/09/18 13:14:43;;;;;;;;;;;25.90;11.10;;;;;;5082844;28;19912;-66
2021/09/18 13:17:10;;;;;;;;;;;25.00;10.30;;;;;;5068859;28;20321;-66
2021/09/18 13:19:48;;;;;;;;;;;24.60;11.90;;;;;;5087368;28;19923;-66
2021/09/18 13:22:14;;;;;;;;;;;24.60;12.70;;;;;;5087865;28;20701;-66
2021/09/18 13:24:40;;;;;;;;;;;24.70;14.30;;;;;;5080154;28;19994;-66
2021/09/18 13:27:06;;;;;;;;;;;24.70;15.20;;;;;;5050997;28;19978;-66
2021/09/18 13:29:31;;;;;;;;;;;24.80;16.00;;;;;;5048974;28;20353;-66
2021/09/18 13:31:57;;;;;;;;;;;24.80;14.80;;;;;;5048006;28;19909;-66
2021/09/18 13:34:22;;;;;;;;;;;24.60;13.70;;;;;;5048789;28;20452;-66
2021/09/18 13:36:48;;;;;;;;;;;24.20;12.60;;;;;;5048655;28;20238;-66
2021/09/18 13:39:14;;;;;;;;;;;23.90;12.30;;;;;;5047283;28;19963;-66
2021/09/18 13:41:40;;;;;;;;;;;23.60;11.70;;;;;;5047545;28;19909;-66
2021/09/18 13:44:05;;;;;;;;;;;23.00;11.10;;;;;;5047494;28;19913;-66
2021/09/18 13:46:31;;;;;;;;;;;22.70;12.50;;;;;;5045733;28;19913;-66
2021/09/18 13:48:56;;;;;;;;;;;22.60;12.80;;;;;;5046629;28;19955;-66
2021/09/18 13:51:22;;;;;;;;;;;22.50;13.80;;;;;;5045745;28;20008;-66
2021/09/18 13:53:47;;;;;;;;;;;22.50;15.10;;;;;;5045476;28;20235;-68
2021/09/18 13:56:13;;;;;;;;;;;22.60;16.20;;;;;;5045932;28;20417;-67
2021/09/18 13:58:40;;;;;;;;;;;22.60;16.20;;;;;;5045893;28;19912;-68
2021/09/18 14:01:06;;;;;;;;;;;22.60;16.90;;;;;;5056770;28;19958;-67
2021/09/18 14:03:33;;;;;;;;;;;22.50;17.40;;;;;;5071768;28;20310;-67
2021/09/18 14:05:59;;;;;;;;;;;22.50;18.20;;;;;;5086303;28;19923;-67
2021/09/18 14:08:24;;;;;;;;;;;22.30;19.40;;;;;;5084724;28;19908;-68
2021/09/18 14:10:50;;;;;;;;;;;22.30;20.00;;;;;;5085826;28;19999;-66
2021/09/18 14:13:15;;;;;;;;;;;22.30;21.20;;;;;;5080135;28;19908;-68
2021/09/18 14:15:41;;;;;;;;;;;22.20;21.20;;;;;;5066130;28;19974;-67
2021/09/18 14:18:07;;;;;;;;;;;22.10;21.50;;;;;;5064982;28;19991;-67
2021/09/18 14:20:33;;;;;;;;;;;22.00;21.60;;;;;;5066073;28;19908;-67
2021/09/18 14:22:58;;;;;;;;;;;22.00;22.10;;;;;;5063718;28;19999;-67
2021/09/18 14:25:25;;;;;;;;;;;22.20;24.00;;;;;;5076929;28;20382;-67
2021/09/18 14:27:51;;;;;;;;;;;22.30;24.40;;;;;;5065379;28;20336;-67